createdAt,value
2022-10-10T00:01:16.032Z,84.85
2022-10-10T00:03:33.083Z,84.68
2022-10-10T00:05:50.036Z,84.67
2022-10-10T00:08:06.976Z,84.69
2022-10-10T00:10:23.950Z,84.11
2022-10-10T00:12:40.876Z,85.05
2022-10-10T00:14:57.779Z,83.71
2022-10-10T00:17:14.764Z,84.57
2022-10-10T00:19:31.702Z,84.14
2022-10-10T00:21:49.716Z,84.11
2022-10-10T00:24:06.634Z,83.99
2022-10-10T00:26:23.575Z,84.24
2022-10-10T00:28:40.515Z,84.11
2022-10-10T00:30:57.489Z,84.27
2022-10-10T00:33:14.400Z,83.95
2022-10-10T00:35:31.372Z,84.45
2022-10-10T00:37:48.279Z,85.52
2022-10-10T00:40:05.199Z,84.12
2022-10-10T00:42:22.152Z,84.68
2022-10-10T00:44:39.080Z,85.01
2022-10-10T00:46:56.035Z,84.34
2022-10-10T00:49:12.967Z,84.70
2022-10-10T00:51:29.859Z,84.55
2022-10-10T00:53:46.839Z,84.02
2022-10-10T00:56:03.647Z,84.34
2022-10-10T00:58:20.571Z,84.96
2022-10-10T01:00:37.556Z,85.13
2022-10-10T01:02:54.515Z,84.01
2022-10-10T01:05:11.380Z,83.75
2022-10-10T01:07:28.280Z,85.08
2022-10-10T01:09:45.229Z,84.07
2022-10-10T01:12:02.098Z,84.69
2022-10-10T01:14:19.032Z,84.95
2022-10-10T01:16:35.954Z,84.56
2022-10-10T01:18:52.976Z,84.46
2022-10-10T01:21:09.944Z,85.43
2022-10-10T01:23:26.809Z,84.31
2022-10-10T01:25:43.672Z,84.78
2022-10-10T01:28:00.593Z,84.26
2022-10-10T01:30:17.528Z,84.19
2022-10-10T01:32:34.409Z,84.48
2022-10-10T01:34:51.341Z,85.17
2022-10-10T01:37:08.254Z,85.42
2022-10-10T01:39:25.163Z,85.29
2022-10-10T01:41:42.079Z,85.18
2022-10-10T01:43:58.963Z,85.07
2022-10-10T01:46:15.934Z,84.75
2022-10-10T01:48:32.814Z,85.02
2022-10-10T01:50:49.811Z,83.98
2022-10-10T01:53:06.755Z,83.42
2022-10-10T01:55:23.715Z,83.58
2022-10-10T01:57:40.618Z,83.93
2022-10-10T01:59:57.511Z,84.03
2022-10-10T02:02:14.416Z,83.50
2022-10-10T02:04:31.363Z,84.60
2022-10-10T02:06:48.286Z,83.39
2022-10-10T02:09:05.243Z,83.82
2022-10-10T02:11:22.176Z,84.49
2022-10-10T02:13:39.079Z,84.66
2022-10-10T02:15:55.989Z,84.02
2022-10-10T02:18:12.843Z,84.49
2022-10-10T02:20:29.702Z,84.81
2022-10-10T02:22:48.946Z,84.38
2022-10-10T02:25:06.174Z,84.04
2022-10-10T02:27:23.013Z,84.46
2022-10-10T02:29:39.853Z,84.39
2022-10-10T02:31:56.675Z,84.45
2022-10-10T02:34:13.570Z,84.08
2022-10-10T02:36:30.380Z,84.72
2022-10-10T02:38:47.193Z,84.58
2022-10-10T02:41:04.039Z,84.99
2022-10-10T02:43:20.937Z,84.50
2022-10-10T02:45:37.785Z,84.77
2022-10-10T02:47:54.823Z,84.59
2022-10-10T02:50:11.670Z,84.58
2022-10-10T02:52:28.550Z,84.16
2022-10-10T02:54:45.423Z,85.13
2022-10-10T02:57:02.211Z,84.29
2022-10-10T02:59:19.073Z,84.19
2022-10-10T03:01:35.943Z,83.78
2022-10-10T03:03:52.781Z,84.78
2022-10-10T03:06:09.649Z,84.34
2022-10-10T03:08:26.532Z,83.96
2022-10-10T03:10:43.401Z,83.84
2022-10-10T03:13:00.415Z,84.13
2022-10-10T03:15:17.324Z,84.44
2022-10-10T03:17:34.233Z,84.82
2022-10-10T03:19:51.057Z,84.14
2022-10-10T03:22:07.906Z,84.73
2022-10-10T03:24:24.719Z,83.78
2022-10-10T03:26:41.567Z,84.72
2022-10-10T03:28:58.441Z,84.68
2022-10-10T03:31:15.283Z,84.44
2022-10-10T03:33:32.193Z,84.57
2022-10-10T03:35:49.036Z,85.14
2022-10-10T03:38:05.940Z,85.00
2022-10-10T03:40:22.788Z,84.76
2022-10-10T03:42:39.654Z,84.72
2022-10-10T03:44:56.520Z,85.15
2022-10-10T03:47:13.346Z,85.00
2022-10-10T03:49:30.206Z,84.96
2022-10-10T03:51:47.088Z,85.69
2022-10-10T03:54:03.921Z,85.02
2022-10-10T03:56:20.820Z,84.44
2022-10-10T03:58:37.659Z,84.45
2022-10-10T04:00:54.530Z,84.86
2022-10-10T04:03:11.427Z,84.78
2022-10-10T04:05:28.247Z,84.33
2022-10-10T04:07:45.100Z,84.28
2022-10-10T04:10:01.904Z,84.94
2022-10-10T04:12:18.767Z,84.97
2022-10-10T04:14:35.594Z,84.91
2022-10-10T04:16:52.540Z,85.02
2022-10-10T04:19:09.429Z,84.51
2022-10-10T04:21:26.261Z,85.02
2022-10-10T04:23:43.151Z,84.88
2022-10-10T04:26:00.035Z,84.91
2022-10-10T04:28:17.005Z,84.99
2022-10-10T04:30:33.868Z,85.41
2022-10-10T04:32:51.035Z,84.90
2022-10-10T04:35:08.003Z,85.57
2022-10-10T04:37:24.828Z,85.27
2022-10-10T04:39:41.686Z,85.24
2022-10-10T04:41:58.579Z,84.86
2022-10-10T04:44:15.425Z,85.20
2022-10-10T04:46:32.237Z,85.80
2022-10-10T04:48:49.067Z,86.08
2022-10-10T04:51:05.943Z,86.02
2022-10-10T04:53:22.819Z,85.82
2022-10-10T04:55:39.653Z,86.04
2022-10-10T04:57:56.548Z,86.04
2022-10-10T05:00:13.445Z,85.74
2022-10-10T05:02:30.258Z,85.36
2022-10-10T05:04:47.130Z,85.56
2022-10-10T05:07:03.966Z,85.72
2022-10-10T05:09:20.811Z,85.21
2022-10-10T05:11:37.624Z,85.09
2022-10-10T05:13:54.489Z,85.55
2022-10-10T05:16:11.324Z,86.15
2022-10-10T05:18:28.197Z,85.90
2022-10-10T05:20:45.046Z,86.34
2022-10-10T05:23:01.929Z,85.82
2022-10-10T05:25:18.759Z,85.37
2022-10-10T05:27:35.616Z,85.67
2022-10-10T05:29:52.457Z,85.52
2022-10-10T05:32:10.520Z,84.99
2022-10-10T05:34:27.607Z,85.44
2022-10-10T05:36:44.515Z,85.26
2022-10-10T05:39:01.424Z,85.04
2022-10-10T05:41:18.290Z,85.53
2022-10-10T05:43:35.119Z,85.45
2022-10-10T05:45:51.983Z,86.08
2022-10-10T05:48:08.854Z,85.69
2022-10-10T05:50:25.737Z,86.30
2022-10-10T05:52:42.600Z,86.21
2022-10-10T05:54:59.614Z,87.14
2022-10-10T05:57:16.688Z,86.37
2022-10-10T05:59:33.627Z,86.07
2022-10-10T06:01:50.460Z,87.34
2022-10-10T06:04:07.354Z,87.15
2022-10-10T06:06:24.191Z,87.86
2022-10-10T06:08:41.076Z,87.02
2022-10-10T06:10:57.907Z,87.51
2022-10-10T06:13:14.771Z,87.25
2022-10-10T06:15:31.645Z,87.30
2022-10-10T06:17:48.498Z,87.75
2022-10-10T06:20:05.523Z,87.90
2022-10-10T06:22:22.390Z,87.02
2022-10-10T06:24:39.215Z,87.04
2022-10-10T06:26:56.072Z,87.51
2022-10-10T06:29:12.879Z,86.98
2022-10-10T06:31:29.743Z,88.08
2022-10-10T06:33:46.549Z,88.53
2022-10-10T06:36:03.416Z,88.97
2022-10-10T06:38:20.267Z,88.82
2022-10-10T06:40:37.142Z,88.43
2022-10-10T06:42:54.433Z,89.60
2022-10-10T06:45:11.469Z,89.53
2022-10-10T06:47:28.294Z,89.67
2022-10-10T06:49:45.543Z,88.96
2022-10-10T06:52:02.441Z,89.75
2022-10-10T06:54:19.341Z,88.82
2022-10-10T06:56:36.167Z,88.83
2022-10-10T06:58:53.086Z,88.64
2022-10-10T07:01:10.141Z,88.23
2022-10-10T07:03:27.006Z,89.18
2022-10-10T07:05:44.138Z,89.55
2022-10-10T07:08:00.984Z,89.46
2022-10-10T07:10:17.827Z,89.20
2022-10-10T07:12:42.058Z,89.50
2022-10-10T07:15:01.194Z,89.30
2022-10-10T07:17:18.096Z,88.93
2022-10-10T07:19:34.925Z,88.30
2022-10-10T07:21:51.844Z,88.21
2022-10-10T07:24:08.866Z,88.40
2022-10-10T07:26:25.837Z,88.85
2022-10-10T07:28:42.669Z,88.29
2022-10-10T07:30:59.622Z,87.48
2022-10-10T07:33:16.604Z,87.71
2022-10-10T07:35:33.498Z,87.40
2022-10-10T07:37:50.391Z,86.90
2022-10-10T07:40:07.256Z,86.71
2022-10-10T07:42:24.103Z,86.70
2022-10-10T07:44:40.937Z,86.57
2022-10-10T07:46:57.831Z,86.24
2022-10-10T07:49:14.640Z,85.91
2022-10-10T07:51:31.530Z,85.60
2022-10-10T07:53:48.450Z,85.00
2022-10-10T07:56:05.350Z,85.31
2022-10-10T07:58:22.181Z,84.73
2022-10-10T08:00:39.062Z,84.71
2022-10-10T08:02:55.942Z,85.46
2022-10-10T08:05:12.843Z,84.16
2022-10-10T08:07:29.688Z,84.01
2022-10-10T08:09:46.549Z,84.28
2022-10-10T08:12:03.377Z,83.91
2022-10-10T08:14:20.363Z,84.34
2022-10-10T08:16:37.229Z,82.74
2022-10-10T08:18:54.083Z,82.99
2022-10-10T08:21:10.947Z,83.23
2022-10-10T08:23:27.854Z,83.04
2022-10-10T08:25:44.685Z,81.59
2022-10-10T08:28:01.507Z,82.17
2022-10-10T08:30:18.372Z,81.48
2022-10-10T08:32:35.237Z,81.15
2022-10-10T08:34:52.075Z,79.87
2022-10-10T08:37:08.906Z,79.81
2022-10-10T08:39:25.803Z,80.79
2022-10-10T08:41:42.657Z,79.70
2022-10-10T08:43:59.527Z,79.05
2022-10-10T08:46:16.355Z,80.79
2022-10-10T08:48:33.234Z,81.99
2022-10-10T08:50:50.067Z,79.79
2022-10-10T08:53:06.941Z,80.18
2022-10-10T08:55:23.790Z,79.60
2022-10-10T08:57:40.689Z,79.94
2022-10-10T08:59:57.521Z,78.82
2022-10-10T09:02:18.526Z,80.09
2022-10-10T09:04:37.057Z,77.20
2022-10-10T09:06:53.924Z,77.26
2022-10-10T09:09:10.771Z,75.81
2022-10-10T09:11:27.670Z,75.39
2022-10-10T09:13:44.560Z,73.59
2022-10-10T09:16:01.443Z,74.15
2022-10-10T09:18:18.267Z,73.49
2022-10-10T09:20:35.139Z,72.59
2022-10-10T09:22:51.946Z,72.60
2022-10-10T09:25:08.836Z,70.56
2022-10-10T09:27:25.721Z,70.69
2022-10-10T09:29:42.581Z,71.24
2022-10-10T09:31:59.433Z,70.69
2022-10-10T09:34:16.329Z,70.90
2022-10-10T09:36:33.204Z,69.60
2022-10-10T09:38:50.049Z,68.50
2022-10-10T09:41:06.975Z,70.01
2022-10-10T09:43:23.859Z,68.83
2022-10-10T09:45:40.711Z,67.84
2022-10-10T09:47:57.543Z,66.84
2022-10-10T09:50:14.398Z,66.74
2022-10-10T09:52:31.275Z,67.09
2022-10-10T09:54:48.125Z,66.79
2022-10-10T09:57:04.988Z,66.71
2022-10-10T09:59:21.895Z,66.48
2022-10-10T10:01:38.837Z,66.43
2022-10-10T10:04:02.540Z,66.13
2022-10-10T10:06:28.170Z,66.67
2022-10-10T10:08:49.795Z,65.74
2022-10-10T10:11:06.806Z,65.49
2022-10-10T10:13:23.650Z,65.67
2022-10-10T10:15:40.548Z,64.55
2022-10-10T10:17:57.456Z,64.73
2022-10-10T10:20:14.355Z,65.28
2022-10-10T10:22:31.175Z,65.46
2022-10-10T10:24:48.000Z,63.77
2022-10-10T10:27:04.882Z,64.65
2022-10-10T10:29:21.771Z,62.34
2022-10-10T10:31:42.671Z,62.30
2022-10-10T10:34:01.494Z,61.89
2022-10-10T10:36:18.332Z,61.63
2022-10-10T10:38:35.284Z,61.83
2022-10-10T10:40:52.128Z,61.94
2022-10-10T10:43:09.067Z,60.92
2022-10-10T10:45:25.937Z,59.98
2022-10-10T10:47:42.783Z,58.65
2022-10-10T10:49:59.671Z,59.27
2022-10-10T10:52:16.492Z,59.10
2022-10-10T10:54:35.289Z,58.52
2022-10-10T10:56:58.867Z,60.14
2022-10-10T10:59:41.692Z,60.51
2022-10-10T11:02:00.745Z,59.48
2022-10-10T11:05:17.849Z,60.39
2022-10-10T11:07:17.440Z,59.93
2022-10-10T11:09:48.984Z,59.59
2022-10-10T11:12:06.763Z,59.09
2022-10-10T11:14:23.637Z,58.31
2022-10-10T11:16:48.891Z,57.14
2022-10-10T11:19:06.290Z,57.75
2022-10-10T11:21:23.128Z,56.52
2022-10-10T11:23:39.989Z,55.72
2022-10-10T11:25:56.825Z,57.46
2022-10-10T11:28:13.722Z,55.19
2022-10-10T11:30:30.627Z,56.37
2022-10-10T11:32:47.496Z,54.73
2022-10-10T11:35:04.399Z,54.41
2022-10-10T11:37:21.266Z,55.26
2022-10-10T11:39:38.101Z,54.73
2022-10-10T11:41:54.978Z,54.55
2022-10-10T11:44:11.855Z,54.78
2022-10-10T11:46:28.654Z,53.47
2022-10-10T11:48:45.831Z,53.79
2022-10-10T11:51:02.715Z,53.03
2022-10-10T11:53:19.614Z,51.06
2022-10-10T11:55:36.449Z,53.02
2022-10-10T11:57:53.332Z,52.82
2022-10-10T12:00:10.220Z,52.64
2022-10-10T12:02:28.025Z,51.22
2022-10-10T12:04:45.110Z,52.16
2022-10-10T12:07:02.019Z,51.65
2022-10-10T12:09:18.900Z,52.86
2022-10-10T12:11:35.814Z,52.76
2022-10-10T12:13:52.714Z,50.84
2022-10-10T12:16:09.530Z,51.95
2022-10-10T12:18:26.372Z,52.24
2022-10-10T12:20:43.223Z,50.62
2022-10-10T12:23:00.060Z,50.74
2022-10-10T12:25:16.967Z,50.05
2022-10-10T12:27:33.809Z,50.83
2022-10-10T12:29:51.462Z,49.27
2022-10-10T12:32:08.393Z,50.00
2022-10-10T12:34:25.272Z,50.44
2022-10-10T12:36:42.109Z,50.90
2022-10-10T12:39:00.810Z,50.39
2022-10-10T12:41:17.753Z,47.74
2022-10-10T12:43:34.581Z,49.31
2022-10-10T12:45:51.408Z,49.77
2022-10-10T12:48:08.293Z,49.98
2022-10-10T12:50:25.133Z,49.70
2022-10-10T12:52:42.030Z,49.28
2022-10-10T12:55:00.479Z,48.16
2022-10-10T12:57:20.127Z,47.25
2022-10-10T12:59:36.978Z,46.95
2022-10-10T13:01:53.953Z,46.84
2022-10-10T13:04:10.823Z,47.49
2022-10-10T13:06:27.691Z,46.87
2022-10-10T13:08:44.615Z,47.77
2022-10-10T13:11:01.770Z,48.59
2022-10-10T13:13:18.756Z,48.89
2022-10-10T13:15:35.652Z,47.80
2022-10-10T13:17:52.482Z,48.00
2022-10-10T13:20:09.319Z,48.45
2022-10-10T13:22:26.171Z,49.43
2022-10-10T13:24:43.036Z,48.86
2022-10-10T13:26:59.898Z,50.07
2022-10-10T13:29:18.336Z,49.29
2022-10-10T13:31:35.171Z,51.63
2022-10-10T13:33:52.068Z,51.11
2022-10-10T13:36:08.937Z,49.67
2022-10-10T13:38:25.762Z,50.48
2022-10-10T13:40:42.601Z,50.49
2022-10-10T13:42:59.460Z,51.55
2022-10-10T13:45:16.320Z,50.34
2022-10-10T13:47:33.154Z,51.58
2022-10-10T13:49:50.010Z,52.46
2022-10-10T13:52:06.894Z,52.63
2022-10-10T13:54:23.728Z,53.18
2022-10-10T13:56:41.530Z,50.54
2022-10-10T13:58:58.558Z,51.71
2022-10-10T14:01:15.482Z,50.82
2022-10-10T14:03:32.414Z,51.55
2022-10-10T14:05:49.283Z,50.69
2022-10-10T14:08:06.202Z,51.06
2022-10-10T14:10:23.024Z,52.42
2022-10-10T14:12:39.888Z,52.15
2022-10-10T14:14:56.739Z,52.13
2022-10-10T14:17:13.595Z,54.37
2022-10-10T14:19:30.466Z,54.51
2022-10-10T14:21:47.293Z,54.72
2022-10-10T14:24:04.183Z,55.46
2022-10-10T14:26:21.013Z,55.96
2022-10-10T14:28:38.120Z,55.19
2022-10-10T14:30:55.139Z,54.98
2022-10-10T14:33:12.019Z,55.17
2022-10-10T14:35:29.103Z,52.59
2022-10-10T14:37:46.055Z,53.86
2022-10-10T14:40:02.999Z,54.51
2022-10-10T14:42:19.886Z,52.86
2022-10-10T14:44:36.774Z,53.30
2022-10-10T14:46:53.653Z,52.33
2022-10-10T14:49:13.109Z,53.43
2022-10-10T14:51:34.518Z,54.98
2022-10-10T14:54:11.772Z,54.91
2022-10-10T14:57:09.082Z,55.97
2022-10-10T14:59:05.929Z,56.73
2022-10-10T15:01:22.765Z,56.26
2022-10-10T15:03:39.627Z,56.49
2022-10-10T15:05:56.480Z,56.66
2022-10-10T15:08:13.319Z,58.33
2022-10-10T15:10:34.578Z,58.52
2022-10-10T15:12:52.110Z,60.67
2022-10-10T15:15:08.932Z,61.17
2022-10-10T15:17:25.795Z,62.96
2022-10-10T15:19:42.626Z,63.78
2022-10-10T15:21:59.472Z,63.33
2022-10-10T15:24:16.337Z,65.27
2022-10-10T15:26:33.353Z,65.36
2022-10-10T15:28:50.290Z,65.13
2022-10-10T15:31:07.193Z,67.38
2022-10-10T15:33:24.027Z,67.18
2022-10-10T15:36:04.353Z,67.53
2022-10-10T15:38:17.709Z,69.62
2022-10-10T15:40:34.546Z,71.58
2022-10-10T15:42:51.407Z,71.08
2022-10-10T15:45:08.280Z,70.95
2022-10-10T15:47:25.337Z,73.13
2022-10-10T15:49:42.224Z,72.38
2022-10-10T15:51:59.096Z,72.88
2022-10-10T15:54:15.977Z,74.03
2022-10-10T15:56:32.825Z,76.75
2022-10-10T15:58:49.672Z,81.39
2022-10-10T16:01:06.863Z,83.74
2022-10-10T16:03:23.837Z,84.83
2022-10-10T16:05:40.688Z,83.99
2022-10-10T16:07:57.539Z,87.04
2022-10-10T16:10:14.418Z,87.79
2022-10-10T16:12:31.286Z,88.71
2022-10-10T16:14:48.157Z,88.07
2022-10-10T16:17:05.004Z,89.11
2022-10-10T16:19:21.933Z,88.64
2022-10-10T16:21:38.759Z,88.79
2022-10-10T16:23:58.075Z,90.25
2022-10-10T16:26:15.367Z,91.09
2022-10-10T16:28:32.330Z,91.85
2022-10-10T16:30:49.213Z,92.24
2022-10-10T16:33:06.071Z,91.71
2022-10-10T16:35:22.922Z,91.37
2022-10-10T16:37:39.785Z,92.00
2022-10-10T16:39:56.604Z,90.76
2022-10-10T16:42:13.502Z,90.96
2022-10-10T16:44:30.351Z,91.59
2022-10-10T16:46:47.254Z,91.46
2022-10-10T16:49:04.220Z,91.97
2022-10-10T16:51:21.078Z,91.78
2022-10-10T16:53:37.931Z,92.30
2022-10-10T16:55:54.794Z,92.25
2022-10-10T16:58:11.655Z,88.14
2022-10-10T17:00:28.518Z,91.07
2022-10-10T17:02:45.365Z,91.88
2022-10-10T17:05:02.273Z,91.40
2022-10-10T17:07:19.137Z,91.93
2022-10-10T17:09:35.998Z,92.96
2022-10-10T17:11:52.842Z,93.20
2022-10-10T17:14:09.932Z,91.95
2022-10-10T17:19:03.717Z,92.86
2022-10-10T17:21:20.615Z,93.54
2022-10-10T17:23:37.450Z,94.10
2022-10-10T17:25:54.267Z,94.69
2022-10-10T17:28:11.194Z,94.61
2022-10-10T17:30:28.030Z,95.04
2022-10-10T17:32:44.839Z,94.93
2022-10-10T17:35:01.728Z,95.94
2022-10-10T17:37:18.557Z,95.47
2022-10-10T17:39:35.409Z,96.31
2022-10-10T17:41:52.326Z,95.97
2022-10-10T17:44:09.224Z,95.62
2022-10-10T17:46:35.398Z,95.34
2022-10-10T17:48:53.363Z,94.92
2022-10-10T17:51:10.232Z,95.46
2022-10-10T17:53:27.115Z,95.07
2022-10-10T17:55:43.967Z,95.72
2022-10-10T17:58:00.855Z,95.54
2022-10-10T18:00:17.782Z,96.06
2022-10-10T18:02:34.650Z,95.48
2022-10-10T18:04:51.567Z,95.49
2022-10-10T18:07:08.449Z,95.34
2022-10-10T18:09:25.285Z,95.07
2022-10-10T18:11:42.364Z,94.75
2022-10-10T18:13:59.263Z,95.38
2022-10-10T18:16:16.119Z,94.85
2022-10-10T18:18:32.952Z,95.03
2022-10-10T18:20:49.823Z,95.21
2022-10-10T18:23:06.692Z,94.91
2022-10-10T18:25:25.192Z,95.07
2022-10-10T18:27:42.258Z,95.24
2022-10-10T18:29:59.076Z,95.05
2022-10-10T18:32:15.935Z,94.75
2022-10-10T18:34:32.841Z,94.81
2022-10-10T18:36:49.666Z,94.44
2022-10-10T18:39:06.535Z,95.10
2022-10-10T18:41:23.342Z,95.61
2022-10-10T18:43:40.219Z,95.93
2022-10-10T18:45:57.104Z,95.87
2022-10-10T18:48:13.973Z,96.17
2022-10-10T18:50:30.788Z,95.57
2022-10-10T18:52:47.634Z,96.73
2022-10-10T18:55:04.509Z,94.97
2022-10-10T18:57:21.350Z,95.46
2022-10-10T18:59:38.216Z,95.16
2022-10-10T19:01:55.108Z,95.00
2022-10-10T19:04:12.001Z,94.25
2022-10-10T19:06:28.806Z,93.91
2022-10-10T19:08:45.694Z,94.59
2022-10-10T19:11:02.983Z,95.00
2022-10-10T19:13:20.163Z,95.02
2022-10-10T19:15:37.004Z,94.77
2022-10-10T19:17:53.876Z,94.74
2022-10-10T19:20:10.742Z,94.67
2022-10-10T19:22:27.631Z,94.90
2022-10-10T19:24:44.560Z,94.18
2022-10-10T19:27:01.480Z,93.81
2022-10-10T19:29:18.350Z,94.71
2022-10-10T19:31:35.181Z,93.92
2022-10-10T19:33:52.104Z,94.15
2022-10-10T19:36:08.977Z,94.02
2022-10-10T19:38:25.812Z,94.48
2022-10-10T19:40:42.833Z,94.45
2022-10-10T19:43:00.349Z,95.38
2022-10-10T19:45:17.422Z,94.84
2022-10-10T19:47:34.274Z,95.38
2022-10-10T19:49:51.092Z,96.38
2022-10-10T19:52:07.963Z,95.35
2022-10-10T19:54:24.837Z,94.77
2022-10-10T19:56:41.654Z,96.03
2022-10-10T19:58:58.542Z,94.90
2022-10-10T20:01:15.483Z,95.58
2022-10-10T20:03:32.380Z,95.38
2022-10-10T20:05:49.250Z,96.09
2022-10-10T20:08:06.137Z,96.54
2022-10-10T20:10:23.019Z,96.87
2022-10-10T20:12:40.198Z,95.33
2022-10-10T20:14:57.201Z,94.84
2022-10-10T20:17:14.041Z,95.99
2022-10-10T20:19:31.138Z,95.18
2022-10-10T20:21:48.058Z,96.02
2022-10-10T20:24:04.977Z,95.63
2022-10-10T20:26:21.938Z,95.40
2022-10-10T20:28:38.899Z,96.38
2022-10-10T20:30:55.882Z,95.37
2022-10-10T20:33:15.338Z,94.36
2022-10-10T20:35:32.237Z,93.98
2022-10-10T20:37:49.248Z,93.29
2022-10-10T20:40:06.270Z,93.78
2022-10-10T20:42:23.218Z,93.50
2022-10-10T20:44:40.083Z,93.35
2022-10-10T20:46:57.040Z,93.78
2022-10-10T20:49:13.966Z,95.12
2022-10-10T20:51:32.133Z,95.34
2022-10-10T20:53:52.352Z,93.79
2022-10-10T20:56:11.601Z,94.08
2022-10-10T20:58:28.614Z,94.44
2022-10-10T21:00:45.531Z,95.85
2022-10-10T21:03:02.551Z,95.42
2022-10-10T21:05:19.508Z,94.80
2022-10-10T21:07:37.397Z,95.26
2022-10-10T21:09:54.278Z,95.09
2022-10-10T21:12:11.193Z,93.23
2022-10-10T21:14:28.120Z,94.52
2022-10-10T21:16:45.042Z,93.79
2022-10-10T21:19:05.072Z,92.55
2022-10-10T21:21:22.030Z,92.71
2022-10-10T21:23:38.999Z,92.30
2022-10-10T21:25:55.941Z,92.43
2022-10-10T21:28:12.886Z,93.52
2022-10-10T21:30:29.846Z,93.05
2022-10-10T21:32:46.696Z,94.41
2022-10-10T21:35:03.601Z,93.14
2022-10-10T21:37:20.567Z,93.18
2022-10-10T21:39:37.485Z,92.62
2022-10-10T21:41:54.437Z,93.88
2022-10-10T21:44:11.421Z,93.30
2022-10-10T21:46:29.815Z,92.41
2022-10-10T21:48:49.355Z,92.03
2022-10-10T21:51:06.280Z,92.05
2022-10-10T21:53:23.305Z,92.50
2022-10-10T21:55:40.172Z,93.91
2022-10-10T21:57:57.067Z,92.66
2022-10-10T22:00:13.997Z,94.21
2022-10-10T22:02:30.928Z,93.59
2022-10-10T22:04:47.794Z,92.33
2022-10-10T22:07:04.833Z,93.52
2022-10-10T22:09:21.784Z,93.30
2022-10-10T22:11:38.689Z,92.15
2022-10-10T22:13:55.780Z,92.40
2022-10-10T22:16:12.715Z,93.84
2022-10-10T22:18:29.624Z,92.73
2022-10-10T22:20:46.584Z,93.56
2022-10-10T22:23:03.524Z,95.21
2022-10-10T22:25:20.502Z,93.69
2022-10-10T22:27:37.419Z,95.58
2022-10-10T22:29:54.346Z,95.06
2022-10-10T22:32:11.332Z,95.87
2022-10-10T22:34:28.293Z,95.74
2022-10-10T22:36:45.258Z,96.01
2022-10-10T22:39:02.320Z,95.73
2022-10-10T22:41:19.237Z,95.13
2022-10-10T22:43:36.237Z,95.36
2022-10-10T22:45:53.174Z,95.91
2022-10-10T22:48:10.139Z,96.35
2022-10-10T22:50:26.967Z,96.22
2022-10-10T22:52:43.828Z,96.40
2022-10-10T22:55:00.691Z,95.23
2022-10-10T22:57:17.526Z,95.82
2022-10-10T22:59:34.406Z,96.11
2022-10-10T23:01:51.262Z,94.92
2022-10-10T23:04:08.174Z,95.39
2022-10-10T23:06:25.047Z,96.05
2022-10-10T23:08:41.912Z,94.91
2022-10-10T23:10:58.760Z,96.37
2022-10-10T23:13:15.686Z,95.14
2022-10-10T23:15:32.559Z,95.54
2022-10-10T23:17:49.466Z,96.21
2022-10-10T23:20:06.353Z,96.37
2022-10-10T23:22:23.233Z,96.07
2022-10-10T23:24:40.127Z,96.19
2022-10-10T23:26:57.187Z,97.09
2022-10-10T23:29:14.060Z,96.51
2022-10-10T23:31:30.966Z,96.05
2022-10-10T23:33:47.862Z,97.70
2022-10-10T23:36:05.017Z,97.71
2022-10-10T23:38:22.112Z,97.10
2022-10-10T23:40:38.989Z,96.39
2022-10-10T23:42:55.916Z,96.60
2022-10-10T23:45:12.792Z,97.22
2022-10-10T23:47:29.682Z,97.08
2022-10-10T23:49:46.576Z,96.40
2022-10-10T23:52:03.451Z,95.53
2022-10-10T23:54:20.360Z,94.19
2022-10-10T23:56:37.214Z,92.59
2022-10-10T23:58:54.097Z,91.64
